sensor_id;sensor_type;location;lat;lon;timestamp;temperature;humidity
36586;DHT22;22591;48.314;11.562;2022-11-14T00:02:09;5.50;99.90
36586;DHT22;22591;48.314;11.562;2022-11-14T00:04:35;5.50;99.90
36586;DHT22;22591;48.314;11.562;2022-11-14T00:07:00;5.50;99.90
36586;DHT22;22591;48.314;11.562;2022-11-14T00:09:27;5.50;99.90
36586;DHT22;22591;48.314;11.562;2022-11-14T00:11:53;5.50;99.90
36586;DHT22;22591;48.314;11.562;2022-11-14T00:14:18;5.50;99.90
36586;DHT22;22591;48.314;11.562;2022-11-14T00:16:44;5.40;99.90
36586;DHT22;22591;48.314;11.562;2022-11-14T00:19:10;5.40;99.90
36586;DHT22;22591;48.314;11.562;2022-11-14T00:21:35;5.50;99.90
36586;DHT22;22591;48.314;11.562;2022-11-14T00:24:01;5.50;99.90
36586;DHT22;22591;48.314;11.562;2022-11-14T00:26:26;5.40;99.90
36586;DHT22;22591;48.314;11.562;2022-11-14T00:28:53;5.40;99.90
36586;DHT22;22591;48.314;11.562;2022-11-14T00:31:19;5.40;99.90
36586;DHT22;22591;48.314;11.562;2022-11-14T00:33:44;5.40;99.90
36586;DHT22;22591;48.314;11.562;2022-11-14T00:36:10;5.30;99.90
36586;DHT22;22591;48.314;11.562;2022-11-14T00:38:35;5.40;99.90
36586;DHT22;22591;48.314;11.562;2022-11-14T00:41:01;5.40;99.90
36586;DHT22;22591;48.314;11.562;2022-11-14T00:43:26;5.40;99.90
36586;DHT22;22591;48.314;11.562;2022-11-14T00:45:52;5.50;99.90
36586;DHT22;22591;48.314;11.562;2022-11-14T00:48:18;5.50;99.90
36586;DHT22;22591;48.314;11.562;2022-11-14T00:50:43;5.50;99.90
36586;DHT22;22591;48.314;11.562;2022-11-14T00:53:09;5.40;99.90
36586;DHT22;22591;48.314;11.562;2022-11-14T00:55:34;5.40;99.90
36586;DHT22;22591;48.314;11.562;2022-11-14T00:58:00;5.40;99.90
36586;DHT22;22591;48.314;11.562;2022-11-14T01:00:26;5.50;99.90
36586;DHT22;22591;48.314;11.562;2022-11-14T01:02:51;5.40;99.90
36586;DHT22;22591;48.314;11.562;2022-11-14T01:05:21;5.40;99.90
36586;DHT22;22591;48.314;11.562;2022-11-14T01:07:48;5.30;99.90
36586;DHT22;22591;48.314;11.562;2022-11-14T01:10:14;5.30;99.90
36586;DHT22;22591;48.314;11.562;2022-11-14T01:12:40;5.30;99.90
36586;DHT22;22591;48.314;11.562;2022-11-14T01:15:06;5.20;99.90
36586;DHT22;22591;48.314;11.562;2022-11-14T01:17:31;5.10;99.90
36586;DHT22;22591;48.314;11.562;2022-11-14T01:19:57;5.10;99.90
36586;DHT22;22591;48.314;11.562;2022-11-14T01:22:23;5.10;99.90
36586;DHT22;22591;48.314;11.562;2022-11-14T01:24:48;5.10;99.90
36586;DHT22;22591;48.314;11.562;2022-11-14T01:27:14;5.10;99.90
36586;DHT22;22591;48.314;11.562;2022-11-14T01:29:39;5.10;99.90
36586;DHT22;22591;48.314;11.562;2022-11-14T01:32:05;5.20;99.90
36586;DHT22;22591;48.314;11.562;2022-11-14T01:34:30;5.20;99.90
36586;DHT22;22591;48.314;11.562;2022-11-14T01:36:56;5.20;99.90
36586;DHT22;22591;48.314;11.562;2022-11-14T01:39:22;5.20;99.90
36586;DHT22;22591;48.314;11.562;2022-11-14T01:41:47;5.20;99.90
36586;DHT22;22591;48.314;11.562;2022-11-14T01:44:15;5.20;99.90
36586;DHT22;22591;48.314;11.562;2022-11-14T01:46:44;5.20;99.90
36586;DHT22;22591;48.314;11.562;2022-11-14T01:52:04;5.30;99.90
36586;DHT22;22591;48.314;11.562;2022-11-14T01:54:35;5.30;99.90
36586;DHT22;22591;48.314;11.562;2022-11-14T01:57:02;5.30;99.90
36586;DHT22;22591;48.314;11.562;2022-11-14T01:59:40;5.30;99.90
36586;DHT22;22591;48.314;11.562;2022-11-14T02:02:16;5.30;99.90
36586;DHT22;22591;48.314;11.562;2022-11-14T02:04:46;5.30;99.90
36586;DHT22;22591;48.314;11.562;2022-11-14T02:07:13;5.30;99.90
36586;DHT22;22591;48.314;11.562;2022-11-14T02:09:42;5.30;99.90
36586;DHT22;22591;48.314;11.562;2022-11-14T02:12:12;5.20;99.90
36586;DHT22;22591;48.314;11.562;2022-11-14T02:14:39;5.20;99.90
36586;DHT22;22591;48.314;11.562;2022-11-14T02:17:06;5.20;99.90
36586;DHT22;22591;48.314;11.562;2022-11-14T02:19:48;5.20;99.90
36586;DHT22;22591;48.314;11.562;2022-11-14T02:22:13;5.20;99.90
36586;DHT22;22591;48.314;11.562;2022-11-14T02:24:39;5.10;99.90
36586;DHT22;22591;48.314;11.562;2022-11-14T02:27:06;5.00;99.90
36586;DHT22;22591;48.314;11.562;2022-11-14T02:29:33;5.10;99.90
36586;DHT22;22591;48.314;11.562;2022-11-14T02:31:59;5.20;99.90
36586;DHT22;22591;48.314;11.562;2022-11-14T02:34:25;5.30;99.90
36586;DHT22;22591;48.314;11.562;2022-11-14T02:36:51;5.20;99.90
36586;DHT22;22591;48.314;11.562;2022-11-14T02:39:16;5.30;99.90
36586;DHT22;22591;48.314;11.562;2022-11-14T02:41:42;5.20;99.90
36586;DHT22;22591;48.314;11.562;2022-11-14T02:44:07;5.30;99.90
36586;DHT22;22591;48.314;11.562;2022-11-14T02:46:33;5.30;99.90
36586;DHT22;22591;48.314;11.562;2022-11-14T02:48:58;5.30;99.90
36586;DHT22;22591;48.314;11.562;2022-11-14T02:51:24;5.30;99.90
36586;DHT22;22591;48.314;11.562;2022-11-14T02:53:49;5.30;99.90
36586;DHT22;22591;48.314;11.562;2022-11-14T02:56:15;5.20;99.90
36586;DHT22;22591;48.314;11.562;2022-11-14T02:58:41;5.20;99.90
36586;DHT22;22591;48.314;11.562;2022-11-14T03:01:06;5.20;99.90
36586;DHT22;22591;48.314;11.562;2022-11-14T03:03:32;5.20;99.90
36586;DHT22;22591;48.314;11.562;2022-11-14T03:05:58;5.00;99.90
36586;DHT22;22591;48.314;11.562;2022-11-14T03:08:24;5.00;99.90
36586;DHT22;22591;48.314;11.562;2022-11-14T03:10:50;5.20;99.90
36586;DHT22;22591;48.314;11.562;2022-11-14T03:13:15;5.20;99.90
36586;DHT22;22591;48.314;11.562;2022-11-14T03:15:41;5.20;99.90
36586;DHT22;22591;48.314;11.562;2022-11-14T03:18:06;5.30;99.90
36586;DHT22;22591;48.314;11.562;2022-11-14T03:20:33;5.20;99.90
36586;DHT22;22591;48.314;11.562;2022-11-14T03:22:58;5.20;99.90
36586;DHT22;22591;48.314;11.562;2022-11-14T03:25:24;5.20;99.90
36586;DHT22;22591;48.314;11.562;2022-11-14T03:27:50;5.10;99.90
36586;DHT22;22591;48.314;11.562;2022-11-14T03:30:15;5.10;99.90
36586;DHT22;22591;48.314;11.562;2022-11-14T03:32:41;5.20;99.90
36586;DHT22;22591;48.314;11.562;2022-11-14T03:35:07;5.20;99.90
36586;DHT22;22591;48.314;11.562;2022-11-14T03:37:33;5.20;99.90
36586;DHT22;22591;48.314;11.562;2022-11-14T03:39:58;5.20;99.90
36586;DHT22;22591;48.314;11.562;2022-11-14T03:42:24;5.20;99.90
36586;DHT22;22591;48.314;11.562;2022-11-14T03:44:50;5.20;99.90
36586;DHT22;22591;48.314;11.562;2022-11-14T03:47:15;5.10;99.90
36586;DHT22;22591;48.314;11.562;2022-11-14T03:49:41;5.20;99.90
36586;DHT22;22591;48.314;11.562;2022-11-14T03:52:12;5.20;99.90
36586;DHT22;22591;48.314;11.562;2022-11-14T03:54:37;5.10;99.90
36586;DHT22;22591;48.314;11.562;2022-11-14T03:57:03;5.10;99.90
36586;DHT22;22591;48.314;11.562;2022-11-14T03:59:28;5.10;99.90
36586;DHT22;22591;48.314;11.562;2022-11-14T04:01:54;5.10;99.90
36586;DHT22;22591;48.314;11.562;2022-11-14T04:04:20;5.10;99.90
36586;DHT22;22591;48.314;11.562;2022-11-14T04:06:46;5.00;99.90
36586;DHT22;22591;48.314;11.562;2022-11-14T04:09:11;4.90;99.90
36586;DHT22;22591;48.314;11.562;2022-11-14T04:11:37;4.80;99.90
36586;DHT22;22591;48.314;11.562;2022-11-14T04:14:02;4.80;99.90
36586;DHT22;22591;48.314;11.562;2022-11-14T04:16:28;4.90;99.90
36586;DHT22;22591;48.314;11.562;2022-11-14T04:18:53;4.90;99.90
36586;DHT22;22591;48.314;11.562;2022-11-14T04:21:19;5.00;99.90
36586;DHT22;22591;48.314;11.562;2022-11-14T04:23:44;4.90;99.90
36586;DHT22;22591;48.314;11.562;2022-11-14T04:26:10;5.00;99.90
36586;DHT22;22591;48.314;11.562;2022-11-14T04:28:35;5.00;99.90
36586;DHT22;22591;48.314;11.562;2022-11-14T04:31:01;5.00;99.90
36586;DHT22;22591;48.314;11.562;2022-11-14T04:33:27;5.10;99.90
36586;DHT22;22591;48.314;11.562;2022-11-14T04:35:52;5.10;99.90
36586;DHT22;22591;48.314;11.562;2022-11-14T04:38:18;5.10;99.90
36586;DHT22;22591;48.314;11.562;2022-11-14T04:40:50;5.00;99.90
36586;DHT22;22591;48.314;11.562;2022-11-14T04:43:17;5.00;99.90
36586;DHT22;22591;48.314;11.562;2022-11-14T04:45:43;5.10;99.90
36586;DHT22;22591;48.314;11.562;2022-11-14T04:48:09;5.00;99.90
36586;DHT22;22591;48.314;11.562;2022-11-14T04:50:34;4.90;99.90
36586;DHT22;22591;48.314;11.562;2022-11-14T04:53:00;5.00;99.90
36586;DHT22;22591;48.314;11.562;2022-11-14T04:55:25;4.90;99.90
36586;DHT22;22591;48.314;11.562;2022-11-14T04:57:55;4.90;99.90
36586;DHT22;22591;48.314;11.562;2022-11-14T05:00:21;4.90;99.90
36586;DHT22;22591;48.314;11.562;2022-11-14T05:02:47;4.90;99.90
36586;DHT22;22591;48.314;11.562;2022-11-14T05:05:12;4.90;99.90
36586;DHT22;22591;48.314;11.562;2022-11-14T05:07:38;4.80;99.90
36586;DHT22;22591;48.314;11.562;2022-11-14T05:10:04;4.80;99.90
36586;DHT22;22591;48.314;11.562;2022-11-14T05:12:30;4.80;99.90
36586;DHT22;22591;48.314;11.562;2022-11-14T05:14:56;4.80;99.90
36586;DHT22;22591;48.314;11.562;2022-11-14T05:17:21;4.70;99.90
36586;DHT22;22591;48.314;11.562;2022-11-14T05:19:47;4.70;99.90
36586;DHT22;22591;48.314;11.562;2022-11-14T05:22:12;4.60;99.90
36586;DHT22;22591;48.314;11.562;2022-11-14T05:24:38;4.50;99.90
36586;DHT22;22591;48.314;11.562;2022-11-14T05:27:03;4.50;99.90
36586;DHT22;22591;48.314;11.562;2022-11-14T05:29:29;4.50;99.90
36586;DHT22;22591;48.314;11.562;2022-11-14T05:31:55;4.60;99.90
36586;DHT22;22591;48.314;11.562;2022-11-14T05:34:22;4.50;99.90
36586;DHT22;22591;48.314;11.562;2022-11-14T05:36:47;4.50;99.90
36586;DHT22;22591;48.314;11.562;2022-11-14T05:39:13;4.60;99.90
36586;DHT22;22591;48.314;11.562;2022-11-14T05:41:39;4.70;99.90
36586;DHT22;22591;48.314;11.562;2022-11-14T05:44:04;4.70;99.90
36586;DHT22;22591;48.314;11.562;2022-11-14T05:46:30;4.80;99.90
36586;DHT22;22591;48.314;11.562;2022-11-14T05:48:55;4.80;99.90
36586;DHT22;22591;48.314;11.562;2022-11-14T05:51:21;4.70;99.90
36586;DHT22;22591;48.314;11.562;2022-11-14T05:53:46;4.60;99.90
36586;DHT22;22591;48.314;11.562;2022-11-14T05:56:12;4.50;99.90
36586;DHT22;22591;48.314;11.562;2022-11-14T05:58:38;4.40;99.90
36586;DHT22;22591;48.314;11.562;2022-11-14T06:01:16;4.50;99.90
36586;DHT22;22591;48.314;11.562;2022-11-14T06:03:44;4.60;99.90
36586;DHT22;22591;48.314;11.562;2022-11-14T06:06:13;4.60;99.90
36586;DHT22;22591;48.314;11.562;2022-11-14T06:08:40;4.50;99.90
36586;DHT22;22591;48.314;11.562;2022-11-14T06:11:16;4.40;99.90
36586;DHT22;22591;48.314;11.562;2022-11-14T06:13:42;4.30;99.90
36586;DHT22;22591;48.314;11.562;2022-11-14T06:16:11;4.20;99.90
36586;DHT22;22591;48.314;11.562;2022-11-14T06:18:37;4.20;99.90
36586;DHT22;22591;48.314;11.562;2022-11-14T06:21:09;4.30;99.90
36586;DHT22;22591;48.314;11.562;2022-11-14T06:23:35;4.40;99.90
36586;DHT22;22591;48.314;11.562;2022-11-14T06:26:02;4.40;99.90
36586;DHT22;22591;48.314;11.562;2022-11-14T06:28:29;4.50;99.90
36586;DHT22;22591;48.314;11.562;2022-11-14T06:30:58;4.50;99.90
36586;DHT22;22591;48.314;11.562;2022-11-14T06:33:25;4.60;99.90
36586;DHT22;22591;48.314;11.562;2022-11-14T06:35:56;4.60;99.90
36586;DHT22;22591;48.314;11.562;2022-11-14T06:38:22;4.50;99.90
36586;DHT22;22591;48.314;11.562;2022-11-14T06:40:47;4.60;99.90
36586;DHT22;22591;48.314;11.562;2022-11-14T06:43:13;4.50;99.90
36586;DHT22;22591;48.314;11.562;2022-11-14T06:45:39;4.50;99.90
36586;DHT22;22591;48.314;11.562;2022-11-14T06:48:04;4.50;99.90
36586;DHT22;22591;48.314;11.562;2022-11-14T06:50:31;4.40;99.90
36586;DHT22;22591;48.314;11.562;2022-11-14T06:52:57;4.40;99.90
36586;DHT22;22591;48.314;11.562;2022-11-14T06:55:23;4.50;99.90
36586;DHT22;22591;48.314;11.562;2022-11-14T06:57:52;4.60;99.90
36586;DHT22;22591;48.314;11.562;2022-11-14T07:00:19;4.60;99.90
36586;DHT22;22591;48.314;11.562;2022-11-14T07:02:46;4.80;99.90
36586;DHT22;22591;48.314;11.562;2022-11-14T07:05:11;4.80;99.90
36586;DHT22;22591;48.314;11.562;2022-11-14T07:07:37;4.80;99.90
36586;DHT22;22591;48.314;11.562;2022-11-14T07:10:02;4.80;99.90
36586;DHT22;22591;48.314;11.562;2022-11-14T07:12:28;4.80;99.90
36586;DHT22;22591;48.314;11.562;2022-11-14T07:14:53;4.90;99.90
36586;DHT22;22591;48.314;11.562;2022-11-14T07:17:19;4.90;99.90
36586;DHT22;22591;48.314;11.562;2022-11-14T07:19:45;4.90;99.90
36586;DHT22;22591;48.314;11.562;2022-11-14T07:22:10;5.00;99.90
36586;DHT22;22591;48.314;11.562;2022-11-14T07:24:36;5.10;99.90
36586;DHT22;22591;48.314;11.562;2022-11-14T07:27:01;5.00;99.90
36586;DHT22;22591;48.314;11.562;2022-11-14T07:29:27;5.00;99.90
36586;DHT22;22591;48.314;11.562;2022-11-14T07:31:52;5.10;99.90
36586;DHT22;22591;48.314;11.562;2022-11-14T07:34:18;5.10;99.90
36586;DHT22;22591;48.314;11.562;2022-11-14T07:36:43;5.10;99.90
36586;DHT22;22591;48.314;11.562;2022-11-14T07:39:09;5.10;99.90
36586;DHT22;22591;48.314;11.562;2022-11-14T07:41:35;5.10;99.90
36586;DHT22;22591;48.314;11.562;2022-11-14T07:44:00;5.20;99.90
36586;DHT22;22591;48.314;11.562;2022-11-14T07:46:26;5.20;99.90
36586;DHT22;22591;48.314;11.562;2022-11-14T07:48:52;5.20;99.90
36586;DHT22;22591;48.314;11.562;2022-11-14T07:51:18;5.30;99.90
36586;DHT22;22591;48.314;11.562;2022-11-14T07:53:44;5.40;99.90
36586;DHT22;22591;48.314;11.562;2022-11-14T07:56:10;5.30;99.90
36586;DHT22;22591;48.314;11.562;2022-11-14T07:58:37;5.20;99.90
36586;DHT22;22591;48.314;11.562;2022-11-14T08:01:04;5.30;99.90
36586;DHT22;22591;48.314;11.562;2022-11-14T08:03:30;5.40;99.90
36586;DHT22;22591;48.314;11.562;2022-11-14T08:06:07;5.40;99.90
36586;DHT22;22591;48.314;11.562;2022-11-14T08:08:33;5.50;99.90
36586;DHT22;22591;48.314;11.562;2022-11-14T08:11:00;5.50;99.90
36586;DHT22;22591;48.314;11.562;2022-11-14T08:13:26;5.50;99.90
36586;DHT22;22591;48.314;11.562;2022-11-14T08:15:52;5.50;99.90
36586;DHT22;22591;48.314;11.562;2022-11-14T08:18:18;5.50;99.90
36586;DHT22;22591;48.314;11.562;2022-11-14T08:20:43;5.60;99.90
36586;DHT22;22591;48.314;11.562;2022-11-14T08:23:10;5.70;99.90
36586;DHT22;22591;48.314;11.562;2022-11-14T08:25:35;5.70;99.90
36586;DHT22;22591;48.314;11.562;2022-11-14T08:28:01;5.80;99.90
36586;DHT22;22591;48.314;11.562;2022-11-14T08:30:27;5.70;99.90
36586;DHT22;22591;48.314;11.562;2022-11-14T08:32:52;5.50;99.90
36586;DHT22;22591;48.314;11.562;2022-11-14T08:35:18;5.40;99.90
36586;DHT22;22591;48.314;11.562;2022-11-14T08:37:44;5.40;99.90
36586;DHT22;22591;48.314;11.562;2022-11-14T08:40:10;5.40;99.90
36586;DHT22;22591;48.314;11.562;2022-11-14T08:42:36;5.50;99.90
36586;DHT22;22591;48.314;11.562;2022-11-14T08:45:01;5.60;99.90
36586;DHT22;22591;48.314;11.562;2022-11-14T08:47:27;5.50;99.90
36586;DHT22;22591;48.314;11.562;2022-11-14T08:49:52;5.70;99.90
36586;DHT22;22591;48.314;11.562;2022-11-14T08:52:18;5.80;99.90
36586;DHT22;22591;48.314;11.562;2022-11-14T08:54:43;5.80;99.90
36586;DHT22;22591;48.314;11.562;2022-11-14T08:57:10;5.90;99.90
36586;DHT22;22591;48.314;11.562;2022-11-14T08:59:39;6.00;99.90
36586;DHT22;22591;48.314;11.562;2022-11-14T09:02:05;5.90;99.90
36586;DHT22;22591;48.314;11.562;2022-11-14T09:04:30;5.70;99.90
36586;DHT22;22591;48.314;11.562;2022-11-14T09:06:56;5.60;99.90
36586;DHT22;22591;48.314;11.562;2022-11-14T09:09:23;5.50;99.90
36586;DHT22;22591;48.314;11.562;2022-11-14T09:11:48;5.30;99.90
36586;DHT22;22591;48.314;11.562;2022-11-14T09:14:14;5.60;99.90
36586;DHT22;22591;48.314;11.562;2022-11-14T09:16:39;5.90;99.90
36586;DHT22;22591;48.314;11.562;2022-11-14T09:19:05;6.00;99.90
36586;DHT22;22591;48.314;11.562;2022-11-14T09:21:30;6.00;99.90
36586;DHT22;22591;48.314;11.562;2022-11-14T09:23:56;6.10;99.90
36586;DHT22;22591;48.314;11.562;2022-11-14T09:26:22;6.00;99.90
36586;DHT22;22591;48.314;11.562;2022-11-14T09:28:47;6.10;99.90
36586;DHT22;22591;48.314;11.562;2022-11-14T09:31:13;6.00;99.90
36586;DHT22;22591;48.314;11.562;2022-11-14T09:33:38;5.90;99.90
36586;DHT22;22591;48.314;11.562;2022-11-14T09:36:06;6.00;99.90
36586;DHT22;22591;48.314;11.562;2022-11-14T09:38:33;5.90;99.90
36586;DHT22;22591;48.314;11.562;2022-11-14T09:43:43;6.10;99.90
36586;DHT22;22591;48.314;11.562;2022-11-14T09:46:39;6.20;99.90
36586;DHT22;22591;48.314;11.562;2022-11-14T09:49:30;6.30;99.90
36586;DHT22;22591;48.314;11.562;2022-11-14T09:55:09;6.20;99.90
36586;DHT22;22591;48.314;11.562;2022-11-14T09:57:37;6.40;99.90
36586;DHT22;22591;48.314;11.562;2022-11-14T10:00:18;6.80;99.90
36586;DHT22;22591;48.314;11.562;2022-11-14T10:08:09;6.60;99.90
36586;DHT22;22591;48.314;11.562;2022-11-14T10:19:16;6.90;99.90
36586;DHT22;22591;48.314;11.562;2022-11-14T10:21:45;7.20;99.90
36586;DHT22;22591;48.314;11.562;2022-11-14T10:27:06;7.50;99.90
36586;DHT22;22591;48.314;11.562;2022-11-14T10:32:41;7.30;99.90
36586;DHT22;22591;48.314;11.562;2022-11-14T10:35:18;7.40;99.90
36586;DHT22;22591;48.314;11.562;2022-11-14T10:38:06;7.60;99.90
36586;DHT22;22591;48.314;11.562;2022-11-14T10:40:49;7.80;99.90
36586;DHT22;22591;48.314;11.562;2022-11-14T10:43:45;7.60;99.90
36586;DHT22;22591;48.314;11.562;2022-11-14T10:46:44;7.50;99.90
36586;DHT22;22591;48.314;11.562;2022-11-14T10:49:20;7.60;99.90
36586;DHT22;22591;48.314;11.562;2022-11-14T10:51:58;7.60;99.90
36586;DHT22;22591;48.314;11.562;2022-11-14T10:54:41;7.40;99.90
36586;DHT22;22591;48.314;11.562;2022-11-14T10:57:17;7.50;99.90
36586;DHT22;22591;48.314;11.562;2022-11-14T10:59:43;7.40;99.90
36586;DHT22;22591;48.314;11.562;2022-11-14T11:02:08;7.60;99.90
36586;DHT22;22591;48.314;11.562;2022-11-14T11:04:35;7.60;99.90
36586;DHT22;22591;48.314;11.562;2022-11-14T11:09:39;7.60;99.90
36586;DHT22;22591;48.314;11.562;2022-11-14T11:12:35;7.50;99.90
36586;DHT22;22591;48.314;11.562;2022-11-14T11:15:17;7.60;99.90
36586;DHT22;22591;48.314;11.562;2022-11-14T11:20:32;8.00;99.90
36586;DHT22;22591;48.314;11.562;2022-11-14T11:25:38;8.00;99.90
36586;DHT22;22591;48.314;11.562;2022-11-14T11:30:30;8.00;99.90
36586;DHT22;22591;48.314;11.562;2022-11-14T11:32:56;8.20;99.90
36586;DHT22;22591;48.314;11.562;2022-11-14T11:35:21;8.30;99.90
36586;DHT22;22591;48.314;11.562;2022-11-14T11:37:53;8.40;99.90
36586;DHT22;22591;48.314;11.562;2022-11-14T11:40:25;8.50;99.90
36586;DHT22;22591;48.314;11.562;2022-11-14T11:45:44;8.60;99.90
36586;DHT22;22591;48.314;11.562;2022-11-14T11:50:40;8.10;99.90
36586;DHT22;22591;48.314;11.562;2022-11-14T11:53:30;8.10;99.90
36586;DHT22;22591;48.314;11.562;2022-11-14T11:56:04;8.10;99.90
36586;DHT22;22591;48.314;11.562;2022-11-14T11:58:47;7.90;99.90
36586;DHT22;22591;48.314;11.562;2022-11-14T12:01:14;7.80;99.90
36586;DHT22;22591;48.314;11.562;2022-11-14T12:03:47;7.80;99.90
36586;DHT22;22591;48.314;11.562;2022-11-14T12:06:23;8.00;99.90
36586;DHT22;22591;48.314;11.562;2022-11-14T12:09:31;8.20;99.90
36586;DHT22;22591;48.314;11.562;2022-11-14T12:12:06;8.70;99.90
36586;DHT22;22591;48.314;11.562;2022-11-14T12:17:48;8.80;99.90
36586;DHT22;22591;48.314;11.562;2022-11-14T12:31:28;8.80;99.90
36586;DHT22;22591;48.314;11.562;2022-11-14T12:33:59;8.90;99.90
36586;DHT22;22591;48.314;11.562;2022-11-14T12:36:28;8.70;99.90
36586;DHT22;22591;48.314;11.562;2022-11-14T12:38:56;8.60;99.90
36586;DHT22;22591;48.314;11.562;2022-11-14T12:41:31;8.70;99.90
36586;DHT22;22591;48.314;11.562;2022-11-14T12:44:35;8.70;99.90
36586;DHT22;22591;48.314;11.562;2022-11-14T12:49:57;8.90;99.90
36586;DHT22;22591;48.314;11.562;2022-11-14T13:00:20;9.40;99.90
36586;DHT22;22591;48.314;11.562;2022-11-14T13:03:09;9.60;99.90
36586;DHT22;22591;48.314;11.562;2022-11-14T13:05:56;9.70;99.90
36586;DHT22;22591;48.314;11.562;2022-11-14T13:14:14;10.10;99.90
36586;DHT22;22591;48.314;11.562;2022-11-14T13:17:24;9.90;99.90
36586;DHT22;22591;48.314;11.562;2022-11-14T13:20:23;9.90;99.90
36586;DHT22;22591;48.314;11.562;2022-11-14T13:24:13;10.00;99.90
36586;DHT22;22591;48.314;11.562;2022-11-14T13:28:49;10.30;99.90
36586;DHT22;22591;48.314;11.562;2022-11-14T13:33:46;10.50;99.90
36586;DHT22;22591;48.314;11.562;2022-11-14T13:36:44;10.60;99.90
36586;DHT22;22591;48.314;11.562;2022-11-14T13:39:44;10.80;99.90
36586;DHT22;22591;48.314;11.562;2022-11-14T13:42:40;11.00;99.90
36586;DHT22;22591;48.314;11.562;2022-11-14T13:50:38;11.00;99.90
36586;DHT22;22591;48.314;11.562;2022-11-14T13:53:16;10.90;99.90
36586;DHT22;22591;48.314;11.562;2022-11-14T13:55:53;10.90;99.90
36586;DHT22;22591;48.314;11.562;2022-11-14T13:58:29;10.80;99.90
36586;DHT22;22591;48.314;11.562;2022-11-14T14:04:06;10.70;99.90
36586;DHT22;22591;48.314;11.562;2022-11-14T14:09:21;10.40;99.90
36586;DHT22;22591;48.314;11.562;2022-11-14T14:14:31;10.30;99.90
36586;DHT22;22591;48.314;11.562;2022-11-14T14:17:12;10.30;99.90
36586;DHT22;22591;48.314;11.562;2022-11-14T14:28:19;9.80;99.90
36586;DHT22;22591;48.314;11.562;2022-11-14T14:33:46;9.60;99.90
36586;DHT22;22591;48.314;11.562;2022-11-14T14:38:45;9.30;99.90
36586;DHT22;22591;48.314;11.562;2022-11-14T14:41:13;9.20;99.90
36586;DHT22;22591;48.314;11.562;2022-11-14T14:43:41;9.20;99.90
36586;DHT22;22591;48.314;11.562;2022-11-14T14:46:07;9.10;99.90
36586;DHT22;22591;48.314;11.562;2022-11-14T14:48:37;9.00;99.90
36586;DHT22;22591;48.314;11.562;2022-11-14T14:51:03;8.90;99.90
36586;DHT22;22591;48.314;11.562;2022-11-14T14:53:33;8.80;99.90
36586;DHT22;22591;48.314;11.562;2022-11-14T14:56:00;8.70;99.90
36586;DHT22;22591;48.314;11.562;2022-11-14T14:58:28;8.50;99.90
36586;DHT22;22591;48.314;11.562;2022-11-14T15:01:05;8.50;99.90
36586;DHT22;22591;48.314;11.562;2022-11-14T15:03:35;8.40;99.90
36586;DHT22;22591;48.314;11.562;2022-11-14T15:06:04;8.30;99.90
36586;DHT22;22591;48.314;11.562;2022-11-14T15:08:34;8.20;99.90
36586;DHT22;22591;48.314;11.562;2022-11-14T15:11:01;8.10;99.90
36586;DHT22;22591;48.314;11.562;2022-11-14T15:13:28;8.10;99.90
36586;DHT22;22591;48.314;11.562;2022-11-14T15:15:56;8.10;99.90
36586;DHT22;22591;48.314;11.562;2022-11-14T15:18:30;8.00;99.90
36586;DHT22;22591;48.314;11.562;2022-11-14T15:23:44;7.90;99.90
36586;DHT22;22591;48.314;11.562;2022-11-14T15:26:15;7.90;99.90
36586;DHT22;22591;48.314;11.562;2022-11-14T15:28:42;7.90;99.90
36586;DHT22;22591;48.314;11.562;2022-11-14T15:31:21;7.90;99.90
36586;DHT22;22591;48.314;11.562;2022-11-14T15:34:01;7.80;99.90
36586;DHT22;22591;48.314;11.562;2022-11-14T15:36:27;7.70;99.90
36586;DHT22;22591;48.314;11.562;2022-11-14T15:39:29;7.70;99.90
36586;DHT22;22591;48.314;11.562;2022-11-14T15:44:49;7.50;99.90
36586;DHT22;22591;48.314;11.562;2022-11-14T15:47:28;7.50;99.90
36586;DHT22;22591;48.314;11.562;2022-11-14T15:50:19;7.50;99.90
36586;DHT22;22591;48.314;11.562;2022-11-14T15:52:54;7.50;99.90
36586;DHT22;22591;48.314;11.562;2022-11-14T15:55:22;7.40;99.90
36586;DHT22;22591;48.314;11.562;2022-11-14T15:57:49;7.30;99.90
36586;DHT22;22591;48.314;11.562;2022-11-14T16:00:15;7.20;99.90
36586;DHT22;22591;48.314;11.562;2022-11-14T16:02:53;7.20;99.90
36586;DHT22;22591;48.314;11.562;2022-11-14T16:05:29;7.20;99.90
36586;DHT22;22591;48.314;11.562;2022-11-14T16:07:55;7.20;99.90
36586;DHT22;22591;48.314;11.562;2022-11-14T16:10:24;7.10;99.90
36586;DHT22;22591;48.314;11.562;2022-11-14T16:12:50;7.20;99.90
36586;DHT22;22591;48.314;11.562;2022-11-14T16:15:16;7.20;99.90
36586;DHT22;22591;48.314;11.562;2022-11-14T16:17:45;7.20;99.90
36586;DHT22;22591;48.314;11.562;2022-11-14T16:20:24;7.30;99.90
36586;DHT22;22591;48.314;11.562;2022-11-14T16:22:51;7.30;99.90
36586;DHT22;22591;48.314;11.562;2022-11-14T16:25:25;7.30;99.90
36586;DHT22;22591;48.314;11.562;2022-11-14T16:27:51;7.30;99.90
36586;DHT22;22591;48.314;11.562;2022-11-14T16:30:18;7.30;99.90
36586;DHT22;22591;48.314;11.562;2022-11-14T16:32:46;7.40;99.90
36586;DHT22;22591;48.314;11.562;2022-11-14T16:35:22;7.40;99.90
36586;DHT22;22591;48.314;11.562;2022-11-14T16:37:48;7.30;99.90
36586;DHT22;22591;48.314;11.562;2022-11-14T16:40:32;7.40;99.90
36586;DHT22;22591;48.314;11.562;2022-11-14T16:42:58;7.40;99.90
36586;DHT22;22591;48.314;11.562;2022-11-14T16:45:25;7.40;99.90
36586;DHT22;22591;48.314;11.562;2022-11-14T16:47:51;7.40;99.90
36586;DHT22;22591;48.314;11.562;2022-11-14T16:50:20;7.40;99.90
36586;DHT22;22591;48.314;11.562;2022-11-14T16:52:46;7.40;99.90
36586;DHT22;22591;48.314;11.562;2022-11-14T16:55:12;7.30;99.90
36586;DHT22;22591;48.314;11.562;2022-11-14T16:57:38;7.40;99.90
36586;DHT22;22591;48.314;11.562;2022-11-14T17:00:05;7.40;99.90
36586;DHT22;22591;48.314;11.562;2022-11-14T17:02:31;7.30;99.90
36586;DHT22;22591;48.314;11.562;2022-11-14T17:04:57;7.20;99.90
36586;DHT22;22591;48.314;11.562;2022-11-14T17:07:22;7.10;99.90
36586;DHT22;22591;48.314;11.562;2022-11-14T17:09:48;7.10;99.90
36586;DHT22;22591;48.314;11.562;2022-11-14T17:12:13;7.10;99.90
36586;DHT22;22591;48.314;11.562;2022-11-14T17:14:39;7.00;99.90
36586;DHT22;22591;48.314;11.562;2022-11-14T17:17:04;7.00;99.90
36586;DHT22;22591;48.314;11.562;2022-11-14T17:19:30;7.00;99.90
36586;DHT22;22591;48.314;11.562;2022-11-14T17:21:56;7.00;99.90
36586;DHT22;22591;48.314;11.562;2022-11-14T17:24:21;7.00;99.90
36586;DHT22;22591;48.314;11.562;2022-11-14T17:26:47;7.00;99.90
36586;DHT22;22591;48.314;11.562;2022-11-14T17:29:13;6.90;99.90
36586;DHT22;22591;48.314;11.562;2022-11-14T17:31:38;6.90;99.90
36586;DHT22;22591;48.314;11.562;2022-11-14T17:34:04;6.90;99.90
36586;DHT22;22591;48.314;11.562;2022-11-14T17:36:30;6.80;99.90